sensor_id;sensor_type;location;lat;lon;timestamp;P1;durP1;ratioP1;P2;durP2;ratioP2
13311;SDS011;34033;48.672;9.376;2022-09-09T00:01:54;1.80;;;1.23;;
13311;SDS011;34033;48.672;9.376;2022-09-09T00:04:30;1.27;;;1.07;;
13311;SDS011;34033;48.672;9.376;2022-09-09T00:15:13;2.40;;;1.00;;
13311;SDS011;34033;48.672;9.376;2022-09-09T00:23:00;1.13;;;1.10;;
13311;SDS011;34033;48.672;9.376;2022-09-09T00:25:48;4.30;;;0.90;;
13311;SDS011;34033;48.672;9.376;2022-09-09T00:28:27;2.00;;;1.30;;
13311;SDS011;34033;48.672;9.376;2022-09-09T00:30:56;1.50;;;1.00;;
13311;SDS011;34033;48.672;9.376;2022-09-09T00:33:26;3.20;;;1.23;;
13311;SDS011;34033;48.672;9.376;2022-09-09T00:35:52;1.00;;;1.00;;
13311;SDS011;34033;48.672;9.376;2022-09-09T00:38:34;2.57;;;1.20;;
13311;SDS011;34033;48.672;9.376;2022-09-09T00:43:37;2.80;;;1.07;;
13311;SDS011;34033;48.672;9.376;2022-09-09T01:02:21;1.03;;;1.00;;
13311;SDS011;34033;48.672;9.376;2022-09-09T01:04:47;2.20;;;1.30;;
13311;SDS011;34033;48.672;9.376;2022-09-09T01:07:16;2.67;;;0.90;;
13311;SDS011;34033;48.672;9.376;2022-09-09T01:14:54;1.00;;;1.00;;
13311;SDS011;34033;48.672;9.376;2022-09-09T01:17:44;1.23;;;1.13;;
13311;SDS011;34033;48.672;9.376;2022-09-09T01:20:17;2.73;;;1.37;;
13311;SDS011;34033;48.672;9.376;2022-09-09T01:25:56;1.20;;;1.10;;
13311;SDS011;34033;48.672;9.376;2022-09-09T01:28:27;1.30;;;1.20;;
13311;SDS011;34033;48.672;9.376;2022-09-09T01:30:53;1.10;;;1.10;;
13311;SDS011;34033;48.672;9.376;2022-09-09T01:33:21;1.47;;;1.20;;
13311;SDS011;34033;48.672;9.376;2022-09-09T01:35:53;2.00;;;1.20;;
13311;SDS011;34033;48.672;9.376;2022-09-09T01:38:29;1.50;;;1.17;;
13311;SDS011;34033;48.672;9.376;2022-09-09T01:40:56;1.10;;;1.00;;
13311;SDS011;34033;48.672;9.376;2022-09-09T01:43:23;2.60;;;1.23;;
13311;SDS011;34033;48.672;9.376;2022-09-09T01:45:51;1.10;;;0.97;;
13311;SDS011;34033;48.672;9.376;2022-09-09T01:48:19;1.53;;;1.00;;
13311;SDS011;34033;48.672;9.376;2022-09-09T01:50:47;2.20;;;1.10;;
13311;SDS011;34033;48.672;9.376;2022-09-09T01:53:13;2.17;;;1.13;;
13311;SDS011;34033;48.672;9.376;2022-09-09T01:55:42;2.10;;;1.13;;
13311;SDS011;34033;48.672;9.376;2022-09-09T01:58:20;1.33;;;1.00;;
13311;SDS011;34033;48.672;9.376;2022-09-09T02:01:02;1.63;;;1.10;;
13311;SDS011;34033;48.672;9.376;2022-09-09T02:03:29;1.27;;;0.97;;
13311;SDS011;34033;48.672;9.376;2022-09-09T02:08:49;3.30;;;1.10;;
13311;SDS011;34033;48.672;9.376;2022-09-09T02:13:43;1.50;;;0.90;;
13311;SDS011;34033;48.672;9.376;2022-09-09T02:18:52;1.30;;;1.00;;
13311;SDS011;34033;48.672;9.376;2022-09-09T02:21:18;2.17;;;0.90;;
13311;SDS011;34033;48.672;9.376;2022-09-09T02:23:44;1.90;;;1.20;;
13311;SDS011;34033;48.672;9.376;2022-09-09T02:26:13;3.57;;;1.10;;
13311;SDS011;34033;48.672;9.376;2022-09-09T02:28:45;1.20;;;1.10;;
13311;SDS011;34033;48.672;9.376;2022-09-09T02:31:14;2.20;;;1.00;;
13311;SDS011;34033;48.672;9.376;2022-09-09T02:33:43;1.17;;;0.90;;
13311;SDS011;34033;48.672;9.376;2022-09-09T02:36:12;1.60;;;1.20;;
13311;SDS011;34033;48.672;9.376;2022-09-09T02:38:42;1.20;;;1.10;;
13311;SDS011;34033;48.672;9.376;2022-09-09T02:41:15;1.50;;;1.40;;
13311;SDS011;34033;48.672;9.376;2022-09-09T02:43:42;1.00;;;0.90;;
13311;SDS011;34033;48.672;9.376;2022-09-09T02:46:12;1.10;;;1.00;;
13311;SDS011;34033;48.672;9.376;2022-09-09T02:51:29;0.87;;;0.87;;
13311;SDS011;34033;48.672;9.376;2022-09-09T02:56:43;0.83;;;0.83;;
13311;SDS011;34033;48.672;9.376;2022-09-09T02:59:14;2.70;;;1.20;;
13311;SDS011;34033;48.672;9.376;2022-09-09T03:01:40;3.60;;;1.00;;
13311;SDS011;34033;48.672;9.376;2022-09-09T03:04:06;4.20;;;1.33;;
13311;SDS011;34033;48.672;9.376;2022-09-09T03:06:31;1.87;;;1.10;;
13311;SDS011;34033;48.672;9.376;2022-09-09T03:08:57;2.40;;;1.23;;
13311;SDS011;34033;48.672;9.376;2022-09-09T03:11:23;3.60;;;1.10;;
13311;SDS011;34033;48.672;9.376;2022-09-09T03:13:49;0.90;;;0.90;;
13311;SDS011;34033;48.672;9.376;2022-09-09T03:16:14;0.70;;;0.70;;
13311;SDS011;34033;48.672;9.376;2022-09-09T03:18:40;1.07;;;0.93;;
13311;SDS011;34033;48.672;9.376;2022-09-09T03:21:05;1.93;;;1.00;;
13311;SDS011;34033;48.672;9.376;2022-09-09T03:23:32;0.87;;;0.87;;
13311;SDS011;34033;48.672;9.376;2022-09-09T03:25:57;2.87;;;1.00;;
13311;SDS011;34033;48.672;9.376;2022-09-09T03:28:23;0.93;;;0.77;;
13311;SDS011;34033;48.672;9.376;2022-09-09T03:30:57;1.00;;;1.00;;
13311;SDS011;34033;48.672;9.376;2022-09-09T03:33:23;1.10;;;1.00;;
13311;SDS011;34033;48.672;9.376;2022-09-09T03:35:49;1.60;;;1.17;;
13311;SDS011;34033;48.672;9.376;2022-09-09T03:38:14;4.20;;;1.10;;
13311;SDS011;34033;48.672;9.376;2022-09-09T03:40:47;1.03;;;0.93;;
13311;SDS011;34033;48.672;9.376;2022-09-09T03:43:14;1.10;;;1.10;;
13311;SDS011;34033;48.672;9.376;2022-09-09T03:45:44;0.70;;;0.70;;
13311;SDS011;34033;48.672;9.376;2022-09-09T03:48:12;23.07;;;6.03;;
13311;SDS011;34033;48.672;9.376;2022-09-09T03:50:37;22.40;;;5.37;;
13311;SDS011;34033;48.672;9.376;2022-09-09T03:53:02;17.10;;;4.60;;
13311;SDS011;34033;48.672;9.376;2022-09-09T03:55:28;10.20;;;3.10;;
13311;SDS011;34033;48.672;9.376;2022-09-09T03:57:53;2.50;;;1.70;;
13311;SDS011;34033;48.672;9.376;2022-09-09T04:00:18;3.17;;;1.40;;
13311;SDS011;34033;48.672;9.376;2022-09-09T04:02:44;1.83;;;1.20;;
13311;SDS011;34033;48.672;9.376;2022-09-09T04:05:10;1.50;;;1.40;;
13311;SDS011;34033;48.672;9.376;2022-09-09T04:07:36;2.03;;;1.80;;
13311;SDS011;34033;48.672;9.376;2022-09-09T04:10:01;1.23;;;1.13;;
13311;SDS011;34033;48.672;9.376;2022-09-09T04:12:27;1.77;;;1.10;;
13311;SDS011;34033;48.672;9.376;2022-09-09T04:14:52;1.60;;;1.50;;
13311;SDS011;34033;48.672;9.376;2022-09-09T04:17:17;1.23;;;1.13;;
13311;SDS011;34033;48.672;9.376;2022-09-09T04:19:43;1.83;;;1.00;;
13311;SDS011;34033;48.672;9.376;2022-09-09T04:22:08;5.50;;;1.47;;
13311;SDS011;34033;48.672;9.376;2022-09-09T04:24:34;1.20;;;1.10;;
13311;SDS011;34033;48.672;9.376;2022-09-09T04:27:00;1.20;;;1.17;;
13311;SDS011;34033;48.672;9.376;2022-09-09T04:29:25;1.43;;;1.10;;
13311;SDS011;34033;48.672;9.376;2022-09-09T04:31:51;2.30;;;1.10;;
13311;SDS011;34033;48.672;9.376;2022-09-09T04:34:16;1.10;;;1.00;;
13311;SDS011;34033;48.672;9.376;2022-09-09T04:36:41;1.30;;;1.20;;
13311;SDS011;34033;48.672;9.376;2022-09-09T04:39:07;1.40;;;0.90;;
13311;SDS011;34033;48.672;9.376;2022-09-09T04:41:32;1.20;;;1.10;;
13311;SDS011;34033;48.672;9.376;2022-09-09T04:43:57;1.13;;;1.03;;
13311;SDS011;34033;48.672;9.376;2022-09-09T04:46:23;1.60;;;1.50;;
13311;SDS011;34033;48.672;9.376;2022-09-09T04:48:49;1.30;;;1.17;;
13311;SDS011;34033;48.672;9.376;2022-09-09T04:51:15;2.50;;;1.30;;
13311;SDS011;34033;48.672;9.376;2022-09-09T04:53:40;3.30;;;1.37;;
13311;SDS011;34033;48.672;9.376;2022-09-09T04:56:07;1.10;;;1.10;;
13311;SDS011;34033;48.672;9.376;2022-09-09T04:58:37;1.83;;;1.30;;
13311;SDS011;34033;48.672;9.376;2022-09-09T05:03:29;1.20;;;1.20;;
13311;SDS011;34033;48.672;9.376;2022-09-09T05:06:01;1.73;;;1.20;;
13311;SDS011;34033;48.672;9.376;2022-09-09T05:08:29;2.57;;;1.20;;
13311;SDS011;34033;48.672;9.376;2022-09-09T05:10:54;1.40;;;1.30;;
13311;SDS011;34033;48.672;9.376;2022-09-09T05:13:20;1.30;;;1.20;;
13311;SDS011;34033;48.672;9.376;2022-09-09T05:15:51;2.40;;;1.43;;
13311;SDS011;34033;48.672;9.376;2022-09-09T05:18:18;1.70;;;1.10;;
13311;SDS011;34033;48.672;9.376;2022-09-09T05:20:43;3.33;;;1.60;;
13311;SDS011;34033;48.672;9.376;2022-09-09T05:23:08;1.57;;;1.43;;
13311;SDS011;34033;48.672;9.376;2022-09-09T05:25:36;2.63;;;1.40;;
13311;SDS011;34033;48.672;9.376;2022-09-09T05:28:01;1.47;;;1.37;;
13311;SDS011;34033;48.672;9.376;2022-09-09T05:30:27;1.50;;;1.40;;
13311;SDS011;34033;48.672;9.376;2022-09-09T05:32:52;1.27;;;1.13;;
13311;SDS011;34033;48.672;9.376;2022-09-09T05:35:21;1.40;;;1.20;;
13311;SDS011;34033;48.672;9.376;2022-09-09T05:37:46;1.37;;;1.27;;
13311;SDS011;34033;48.672;9.376;2022-09-09T05:40:12;3.63;;;1.60;;
13311;SDS011;34033;48.672;9.376;2022-09-09T05:42:38;13.57;;;1.63;;
13311;SDS011;34033;48.672;9.376;2022-09-09T05:45:04;2.30;;;1.40;;
13311;SDS011;34033;48.672;9.376;2022-09-09T05:47:32;2.23;;;1.40;;
13311;SDS011;34033;48.672;9.376;2022-09-09T05:49:58;1.30;;;1.20;;
13311;SDS011;34033;48.672;9.376;2022-09-09T05:52:23;1.40;;;1.30;;
13311;SDS011;34033;48.672;9.376;2022-09-09T05:54:50;1.20;;;1.20;;
13311;SDS011;34033;48.672;9.376;2022-09-09T05:57:16;4.47;;;1.40;;
13311;SDS011;34033;48.672;9.376;2022-09-09T05:59:42;1.10;;;1.10;;
13311;SDS011;34033;48.672;9.376;2022-09-09T06:02:08;2.67;;;1.50;;
13311;SDS011;34033;48.672;9.376;2022-09-09T06:04:34;1.40;;;1.20;;
13311;SDS011;34033;48.672;9.376;2022-09-09T06:06:59;1.47;;;1.30;;
13311;SDS011;34033;48.672;9.376;2022-09-09T06:09:25;9.57;;;2.13;;
13311;SDS011;34033;48.672;9.376;2022-09-09T06:11:50;2.97;;;1.63;;
13311;SDS011;34033;48.672;9.376;2022-09-09T06:14:15;2.17;;;1.43;;
13311;SDS011;34033;48.672;9.376;2022-09-09T06:16:42;2.73;;;1.67;;
13311;SDS011;34033;48.672;9.376;2022-09-09T06:19:09;3.87;;;1.77;;
13311;SDS011;34033;48.672;9.376;2022-09-09T06:21:35;1.70;;;1.60;;
13311;SDS011;34033;48.672;9.376;2022-09-09T06:24:02;1.50;;;1.40;;
13311;SDS011;34033;48.672;9.376;2022-09-09T06:26:32;1.50;;;1.40;;
13311;SDS011;34033;48.672;9.376;2022-09-09T06:28:59;1.60;;;1.20;;
13311;SDS011;34033;48.672;9.376;2022-09-09T06:31:26;1.63;;;1.40;;
13311;SDS011;34033;48.672;9.376;2022-09-09T06:33:55;1.37;;;1.20;;
13311;SDS011;34033;48.672;9.376;2022-09-09T06:36:22;1.37;;;1.27;;
13311;SDS011;34033;48.672;9.376;2022-09-09T06:38:52;1.67;;;1.50;;
13311;SDS011;34033;48.672;9.376;2022-09-09T06:41:18;2.07;;;1.23;;
13311;SDS011;34033;48.672;9.376;2022-09-09T06:43:45;2.60;;;1.67;;
13311;SDS011;34033;48.672;9.376;2022-09-09T06:46:13;1.57;;;1.37;;
13311;SDS011;34033;48.672;9.376;2022-09-09T06:48:43;1.90;;;1.80;;
13311;SDS011;34033;48.672;9.376;2022-09-09T06:51:16;3.10;;;2.10;;
13311;SDS011;34033;48.672;9.376;2022-09-09T06:53:43;1.90;;;1.70;;
13311;SDS011;34033;48.672;9.376;2022-09-09T06:58:42;1.80;;;1.33;;
13311;SDS011;34033;48.672;9.376;2022-09-09T07:01:15;1.27;;;1.20;;
13311;SDS011;34033;48.672;9.376;2022-09-09T07:03:42;1.30;;;1.20;;
13311;SDS011;34033;48.672;9.376;2022-09-09T07:06:14;4.93;;;1.27;;
13311;SDS011;34033;48.672;9.376;2022-09-09T07:08:42;1.30;;;1.20;;
13311;SDS011;34033;48.672;9.376;2022-09-09T07:11:08;1.40;;;1.30;;
13311;SDS011;34033;48.672;9.376;2022-09-09T07:13:34;2.83;;;1.20;;
13311;SDS011;34033;48.672;9.376;2022-09-09T07:16:03;1.50;;;1.40;;
13311;SDS011;34033;48.672;9.376;2022-09-09T07:18:30;3.53;;;1.20;;
13311;SDS011;34033;48.672;9.376;2022-09-09T07:20:56;3.10;;;1.20;;
13311;SDS011;34033;48.672;9.376;2022-09-09T07:23:22;1.30;;;1.20;;
13311;SDS011;34033;48.672;9.376;2022-09-09T07:25:47;3.47;;;1.53;;
13311;SDS011;34033;48.672;9.376;2022-09-09T07:28:13;1.40;;;1.30;;
13311;SDS011;34033;48.672;9.376;2022-09-09T07:30:39;2.00;;;1.37;;
13311;SDS011;34033;48.672;9.376;2022-09-09T07:33:05;1.50;;;1.27;;
13311;SDS011;34033;48.672;9.376;2022-09-09T07:35:31;1.57;;;1.03;;
13311;SDS011;34033;48.672;9.376;2022-09-09T07:37:56;5.33;;;1.47;;
13311;SDS011;34033;48.672;9.376;2022-09-09T07:40:23;4.43;;;1.70;;
13311;SDS011;34033;48.672;9.376;2022-09-09T07:42:49;1.80;;;1.70;;
13311;SDS011;34033;48.672;9.376;2022-09-09T07:45:14;2.63;;;1.10;;
13311;SDS011;34033;48.672;9.376;2022-09-09T07:47:40;3.60;;;1.50;;
13311;SDS011;34033;48.672;9.376;2022-09-09T07:50:07;1.17;;;1.10;;
13311;SDS011;34033;48.672;9.376;2022-09-09T07:52:34;1.30;;;1.10;;
13311;SDS011;34033;48.672;9.376;2022-09-09T07:55:00;1.50;;;0.97;;
13311;SDS011;34033;48.672;9.376;2022-09-09T07:57:27;2.50;;;0.97;;
13311;SDS011;34033;48.672;9.376;2022-09-09T07:59:55;1.60;;;1.00;;
13311;SDS011;34033;48.672;9.376;2022-09-09T08:02:21;1.33;;;1.17;;
13311;SDS011;34033;48.672;9.376;2022-09-09T08:04:47;2.03;;;0.90;;
13311;SDS011;34033;48.672;9.376;2022-09-09T08:07:13;0.93;;;0.93;;
13311;SDS011;34033;48.672;9.376;2022-09-09T08:09:38;1.13;;;0.80;;
13311;SDS011;34033;48.672;9.376;2022-09-09T08:12:04;1.17;;;0.93;;
13311;SDS011;34033;48.672;9.376;2022-09-09T08:14:31;1.10;;;1.00;;
13311;SDS011;34033;48.672;9.376;2022-09-09T08:16:56;1.80;;;1.00;;
13311;SDS011;34033;48.672;9.376;2022-09-09T08:19:22;2.40;;;1.10;;
13311;SDS011;34033;48.672;9.376;2022-09-09T08:21:48;0.77;;;0.77;;
13311;SDS011;34033;48.672;9.376;2022-09-09T08:24:14;2.17;;;0.90;;
13311;SDS011;34033;48.672;9.376;2022-09-09T08:26:44;0.80;;;0.80;;
13311;SDS011;34033;48.672;9.376;2022-09-09T08:29:11;2.10;;;1.03;;
13311;SDS011;34033;48.672;9.376;2022-09-09T08:31:39;4.37;;;1.00;;
13311;SDS011;34033;48.672;9.376;2022-09-09T08:34:07;0.97;;;0.97;;
13311;SDS011;34033;48.672;9.376;2022-09-09T08:36:35;2.30;;;1.10;;
13311;SDS011;34033;48.672;9.376;2022-09-09T08:39:03;0.80;;;0.80;;
13311;SDS011;34033;48.672;9.376;2022-09-09T08:58:02;0.80;;;0.80;;
13311;SDS011;34033;48.672;9.376;2022-09-09T09:11:39;1.17;;;0.70;;
13311;SDS011;34033;48.672;9.376;2022-09-09T09:14:10;1.23;;;0.80;;
13311;SDS011;34033;48.672;9.376;2022-09-09T09:16:51;1.63;;;0.77;;
13311;SDS011;34033;48.672;9.376;2022-09-09T09:19:21;1.07;;;0.70;;
13311;SDS011;34033;48.672;9.376;2022-09-09T09:21:55;0.67;;;0.67;;
13311;SDS011;34033;48.672;9.376;2022-09-09T09:25:22;1.07;;;0.90;;
13311;SDS011;34033;48.672;9.376;2022-09-09T09:30:05;1.47;;;0.73;;
13311;SDS011;34033;48.672;9.376;2022-09-09T09:32:39;1.63;;;0.80;;
13311;SDS011;34033;48.672;9.376;2022-09-09T09:35:17;0.70;;;0.70;;
13311;SDS011;34033;48.672;9.376;2022-09-09T09:37:42;1.77;;;1.00;;
13311;SDS011;34033;48.672;9.376;2022-09-09T09:42:53;3.70;;;0.97;;
13311;SDS011;34033;48.672;9.376;2022-09-09T09:48:09;1.00;;;0.70;;
13311;SDS011;34033;48.672;9.376;2022-09-09T09:50:46;2.70;;;0.87;;
13311;SDS011;34033;48.672;9.376;2022-09-09T09:53:25;0.60;;;0.60;;
13311;SDS011;34033;48.672;9.376;2022-09-09T09:55:53;1.70;;;0.77;;
13311;SDS011;34033;48.672;9.376;2022-09-09T09:58:22;0.80;;;0.70;;
13311;SDS011;34033;48.672;9.376;2022-09-09T10:00:50;0.73;;;0.60;;
13311;SDS011;34033;48.672;9.376;2022-09-09T10:03:25;2.83;;;1.20;;
13311;SDS011;34033;48.672;9.376;2022-09-09T10:05:51;1.80;;;0.97;;
13311;SDS011;34033;48.672;9.376;2022-09-09T10:08:17;0.73;;;0.73;;
13311;SDS011;34033;48.672;9.376;2022-09-09T10:13:18;0.80;;;0.60;;
13311;SDS011;34033;48.672;9.376;2022-09-09T10:15:53;1.13;;;0.70;;
13311;SDS011;34033;48.672;9.376;2022-09-09T10:18:26;1.10;;;0.60;;
13311;SDS011;34033;48.672;9.376;2022-09-09T10:34:45;1.23;;;0.53;;
13311;SDS011;34033;48.672;9.376;2022-09-09T10:39:55;0.63;;;0.63;;
13311;SDS011;34033;48.672;9.376;2022-09-09T10:42:37;2.77;;;0.90;;
13311;SDS011;34033;48.672;9.376;2022-09-09T10:48:06;2.70;;;0.80;;
13311;SDS011;34033;48.672;9.376;2022-09-09T10:53:14;0.70;;;0.70;;
13311;SDS011;34033;48.672;9.376;2022-09-09T10:55:53;0.50;;;0.50;;
13311;SDS011;34033;48.672;9.376;2022-09-09T10:58:30;0.87;;;0.57;;
13311;SDS011;34033;48.672;9.376;2022-09-09T11:01:06;1.63;;;0.70;;
13311;SDS011;34033;48.672;9.376;2022-09-09T11:03:41;0.83;;;0.83;;
13311;SDS011;34033;48.672;9.376;2022-09-09T11:06:18;0.77;;;0.70;;
13311;SDS011;34033;48.672;9.376;2022-09-09T11:08:47;1.33;;;0.70;;
13311;SDS011;34033;48.672;9.376;2022-09-09T11:11:32;1.90;;;0.83;;
13311;SDS011;34033;48.672;9.376;2022-09-09T11:16:49;2.77;;;1.10;;
13311;SDS011;34033;48.672;9.376;2022-09-09T11:24:50;0.60;;;0.60;;
13311;SDS011;34033;48.672;9.376;2022-09-09T11:27:21;0.80;;;0.60;;
13311;SDS011;34033;48.672;9.376;2022-09-09T11:35:37;1.30;;;0.50;;
13311;SDS011;34033;48.672;9.376;2022-09-09T11:38:15;0.90;;;0.83;;
13311;SDS011;34033;48.672;9.376;2022-09-09T11:40:55;1.03;;;0.50;;
13311;SDS011;34033;48.672;9.376;2022-09-09T11:46:11;0.73;;;0.63;;
13311;SDS011;34033;48.672;9.376;2022-09-09T11:48:57;0.60;;;0.60;;
13311;SDS011;34033;48.672;9.376;2022-09-09T11:51:26;1.17;;;0.67;;
13311;SDS011;34033;48.672;9.376;2022-09-09T11:53:54;0.83;;;0.80;;
13311;SDS011;34033;48.672;9.376;2022-09-09T11:58:55;2.00;;;0.90;;
13311;SDS011;34033;48.672;9.376;2022-09-09T12:01:29;1.53;;;0.80;;
13311;SDS011;34033;48.672;9.376;2022-09-09T12:04:17;0.83;;;0.70;;
13311;SDS011;34033;48.672;9.376;2022-09-09T12:06:54;1.00;;;0.70;;
13311;SDS011;34033;48.672;9.376;2022-09-09T12:09:25;2.53;;;0.70;;
13311;SDS011;34033;48.672;9.376;2022-09-09T12:12:06;0.80;;;0.80;;
13311;SDS011;34033;48.672;9.376;2022-09-09T12:17:09;1.53;;;1.40;;
13311;SDS011;34033;48.672;9.376;2022-09-09T12:19:40;0.70;;;0.70;;
13311;SDS011;34033;48.672;9.376;2022-09-09T12:24:59;1.43;;;0.90;;
13311;SDS011;34033;48.672;9.376;2022-09-09T12:27:47;0.87;;;0.30;;
13311;SDS011;34033;48.672;9.376;2022-09-09T12:30:16;0.37;;;0.37;;
13311;SDS011;34033;48.672;9.376;2022-09-09T12:32:42;0.40;;;0.40;;
13311;SDS011;34033;48.672;9.376;2022-09-09T12:37:52;1.03;;;0.50;;
13311;SDS011;34033;48.672;9.376;2022-09-09T12:40:26;1.90;;;0.40;;
13311;SDS011;34033;48.672;9.376;2022-09-09T12:42:57;0.50;;;0.50;;
13311;SDS011;34033;48.672;9.376;2022-09-09T12:45:27;0.77;;;0.73;;
13311;SDS011;34033;48.672;9.376;2022-09-09T12:48:00;0.40;;;0.40;;
13311;SDS011;34033;48.672;9.376;2022-09-09T12:53:12;1.80;;;0.40;;
13311;SDS011;34033;48.672;9.376;2022-09-09T12:55:50;2.10;;;0.30;;
13311;SDS011;34033;48.672;9.376;2022-09-09T12:58:21;0.47;;;0.40;;
13311;SDS011;34033;48.672;9.376;2022-09-09T13:00:53;0.47;;;0.47;;
13311;SDS011;34033;48.672;9.376;2022-09-09T13:03:24;0.43;;;0.30;;
13311;SDS011;34033;48.672;9.376;2022-09-09T13:05:53;1.20;;;0.47;;
13311;SDS011;34033;48.672;9.376;2022-09-09T13:08:24;2.13;;;0.60;;
13311;SDS011;34033;48.672;9.376;2022-09-09T13:10:50;0.73;;;0.60;;
13311;SDS011;34033;48.672;9.376;2022-09-09T13:13:26;0.70;;;0.70;;
13311;SDS011;34033;48.672;9.376;2022-09-09T13:15:58;2.50;;;0.57;;
13311;SDS011;34033;48.672;9.376;2022-09-09T13:18:27;0.90;;;0.50;;
13311;SDS011;34033;48.672;9.376;2022-09-09T13:20:55;3.97;;;0.57;;
13311;SDS011;34033;48.672;9.376;2022-09-09T13:23:23;1.03;;;0.50;;
13311;SDS011;34033;48.672;9.376;2022-09-09T13:25:58;1.07;;;0.40;;
13311;SDS011;34033;48.672;9.376;2022-09-09T13:28:26;0.87;;;0.60;;
13311;SDS011;34033;48.672;9.376;2022-09-09T13:31:04;0.57;;;0.57;;
13311;SDS011;34033;48.672;9.376;2022-09-09T13:33:44;0.57;;;0.40;;
13311;SDS011;34033;48.672;9.376;2022-09-09T13:36:09;2.13;;;0.50;;
13311;SDS011;34033;48.672;9.376;2022-09-09T13:38:37;0.47;;;0.47;;
13311;SDS011;34033;48.672;9.376;2022-09-09T13:41:06;1.93;;;0.50;;
13311;SDS011;34033;48.672;9.376;2022-09-09T13:43:37;1.23;;;0.50;;
13311;SDS011;34033;48.672;9.376;2022-09-09T13:51:37;0.43;;;0.37;;
13311;SDS011;34033;48.672;9.376;2022-09-09T13:54:08;0.77;;;0.50;;
13311;SDS011;34033;48.672;9.376;2022-09-09T13:56:35;1.43;;;0.67;;
13311;SDS011;34033;48.672;9.376;2022-09-09T13:59:02;1.60;;;0.73;;
13311;SDS011;34033;48.672;9.376;2022-09-09T14:01:28;0.40;;;0.33;;
13311;SDS011;34033;48.672;9.376;2022-09-09T14:03:54;0.77;;;0.53;;
13311;SDS011;34033;48.672;9.376;2022-09-09T14:06:20;0.47;;;0.47;;
13311;SDS011;34033;48.672;9.376;2022-09-09T14:08:49;1.10;;;0.70;;
13311;SDS011;34033;48.672;9.376;2022-09-09T14:11:16;0.90;;;0.50;;
13311;SDS011;34033;48.672;9.376;2022-09-09T14:13:43;1.43;;;0.60;;
13311;SDS011;34033;48.672;9.376;2022-09-09T14:16:09;0.87;;;0.50;;
13311;SDS011;34033;48.672;9.376;2022-09-09T14:18:35;0.67;;;0.40;;
13311;SDS011;34033;48.672;9.376;2022-09-09T14:21:00;1.17;;;0.70;;
13311;SDS011;34033;48.672;9.376;2022-09-09T14:23:27;0.40;;;0.40;;
13311;SDS011;34033;48.672;9.376;2022-09-09T14:25:54;2.40;;;0.40;;
13311;SDS011;34033;48.672;9.376;2022-09-09T14:28:20;0.83;;;0.50;;
13311;SDS011;34033;48.672;9.376;2022-09-09T14:30:45;2.03;;;0.47;;
13311;SDS011;34033;48.672;9.376;2022-09-09T14:33:12;1.03;;;0.67;;
13311;SDS011;34033;48.672;9.376;2022-09-09T14:35:38;1.23;;;0.50;;
13311;SDS011;34033;48.672;9.376;2022-09-09T14:38:05;1.10;;;0.50;;
13311;SDS011;34033;48.672;9.376;2022-09-09T14:40:30;1.50;;;0.57;;
13311;SDS011;34033;48.672;9.376;2022-09-09T14:42:56;0.40;;;0.40;;
13311;SDS011;34033;48.672;9.376;2022-09-09T14:45:22;0.63;;;0.60;;
13311;SDS011;34033;48.672;9.376;2022-09-09T14:47:50;1.10;;;0.57;;
13311;SDS011;34033;48.672;9.376;2022-09-09T14:50:15;0.40;;;0.40;;
13311;SDS011;34033;48.672;9.376;2022-09-09T14:52:41;0.40;;;0.37;;
13311;SDS011;34033;48.672;9.376;2022-09-09T14:55:06;0.40;;;0.40;;
13311;SDS011;34033;48.672;9.376;2022-09-09T14:57:32;1.90;;;0.37;;
13311;SDS011;34033;48.672;9.376;2022-09-09T14:59:57;0.37;;;0.37;;
13311;SDS011;34033;48.672;9.376;2022-09-09T15:02:23;0.63;;;0.43;;
13311;SDS011;34033;48.672;9.376;2022-09-09T15:04:48;0.30;;;0.30;;
13311;SDS011;34033;48.672;9.376;2022-09-09T15:07:17;1.07;;;0.43;;
13311;SDS011;34033;48.672;9.376;2022-09-09T15:09:44;0.40;;;0.40;;
13311;SDS011;34033;48.672;9.376;2022-09-09T15:12:10;0.67;;;0.50;;
13311;SDS011;34033;48.672;9.376;2022-09-09T15:14:35;0.23;;;0.23;;
13311;SDS011;34033;48.672;9.376;2022-09-09T15:17:00;0.93;;;0.40;;
13311;SDS011;34033;48.672;9.376;2022-09-09T15:19:26;1.13;;;0.43;;
13311;SDS011;34033;48.672;9.376;2022-09-09T15:21:51;0.73;;;0.47;;
13311;SDS011;34033;48.672;9.376;2022-09-09T15:24:17;2.43;;;0.60;;
13311;SDS011;34033;48.672;9.376;2022-09-09T15:26:42;0.27;;;0.27;;
13311;SDS011;34033;48.672;9.376;2022-09-09T15:29:08;0.40;;;0.40;;
13311;SDS011;34033;48.672;9.376;2022-09-09T15:31:33;1.13;;;0.50;;
13311;SDS011;34033;48.672;9.376;2022-09-09T15:34:03;3.70;;;0.50;;
13311;SDS011;34033;48.672;9.376;2022-09-09T15:36:31;0.33;;;0.33;;
13311;SDS011;34033;48.672;9.376;2022-09-09T15:38:58;0.63;;;0.40;;
13311;SDS011;34033;48.672;9.376;2022-09-09T15:41:24;1.07;;;0.40;;
13311;SDS011;34033;48.672;9.376;2022-09-09T15:43:51;0.53;;;0.33;;
13311;SDS011;34033;48.672;9.376;2022-09-09T15:51:34;1.47;;;0.33;;
13311;SDS011;34033;48.672;9.376;2022-09-09T15:54:02;0.40;;;0.40;;
13311;SDS011;34033;48.672;9.376;2022-09-09T15:56:28;0.37;;;0.37;;
13311;SDS011;34033;48.672;9.376;2022-09-09T15:58:58;0.93;;;0.60;;
13311;SDS011;34033;48.672;9.376;2022-09-09T16:01:25;1.83;;;0.50;;
13311;SDS011;34033;48.672;9.376;2022-09-09T16:03:51;0.93;;;0.40;;
13311;SDS011;34033;48.672;9.376;2022-09-09T16:06:19;2.03;;;0.60;;
13311;SDS011;34033;48.672;9.376;2022-09-09T16:08:46;1.87;;;0.73;;
13311;SDS011;34033;48.672;9.376;2022-09-09T16:11:16;0.40;;;0.40;;
13311;SDS011;34033;48.672;9.376;2022-09-09T16:13:44;0.33;;;0.33;;
13311;SDS011;34033;48.672;9.376;2022-09-09T16:16:11;1.23;;;0.50;;
13311;SDS011;34033;48.672;9.376;2022-09-09T16:18:45;2.03;;;0.70;;
13311;SDS011;34033;48.672;9.376;2022-09-09T16:21:13;0.70;;;0.47;;
13311;SDS011;34033;48.672;9.376;2022-09-09T16:23:40;1.67;;;0.57;;
13311;SDS011;34033;48.672;9.376;2022-09-09T16:26:08;1.07;;;0.50;;
13311;SDS011;34033;48.672;9.376;2022-09-09T16:28:38;0.50;;;0.50;;
13311;SDS011;34033;48.672;9.376;2022-09-09T16:31:07;0.60;;;0.60;;
13311;SDS011;34033;48.672;9.376;2022-09-09T16:33:35;0.40;;;0.40;;
13311;SDS011;34033;48.672;9.376;2022-09-09T16:36:35;0.80;;;0.50;;
13311;SDS011;34033;48.672;9.376;2022-09-09T16:39:03;0.33;;;0.33;;
13311;SDS011;34033;48.672;9.376;2022-09-09T16:41:34;0.30;;;0.30;;
13311;SDS011;34033;48.672;9.376;2022-09-09T16:44:00;0.27;;;0.27;;
13311;SDS011;34033;48.672;9.376;2022-09-09T16:46:29;0.30;;;0.27;;
13311;SDS011;34033;48.672;9.376;2022-09-09T16:48:56;1.00;;;0.60;;
13311;SDS011;34033;48.672;9.376;2022-09-09T16:51:26;0.30;;;0.30;;
13311;SDS011;34033;48.672;9.376;2022-09-09T16:53:57;2.27;;;0.40;;
13311;SDS011;34033;48.672;9.376;2022-09-09T16:56:26;0.40;;;0.40;;
13311;SDS011;34033;48.672;9.376;2022-09-09T16:58:57;0.43;;;0.43;;
13311;SDS011;34033;48.672;9.376;2022-09-09T17:01:27;0.77;;;0.40;;
13311;SDS011;34033;48.672;9.376;2022-09-09T17:03:58;0.57;;;0.40;;
13311;SDS011;34033;48.672;9.376;2022-09-09T17:06:26;0.67;;;0.50;;
13311;SDS011;34033;48.672;9.376;2022-09-09T17:08:57;0.77;;;0.60;;
13311;SDS011;34033;48.672;9.376;2022-09-09T17:11:23;0.50;;;0.50;;
13311;SDS011;34033;48.672;9.376;2022-09-09T17:13:49;0.53;;;0.37;;
13311;SDS011;34033;48.672;9.376;2022-09-09T17:16:17;0.90;;;0.50;;
13311;SDS011;34033;48.672;9.376;2022-09-09T17:18:45;0.43;;;0.43;;
13311;SDS011;34033;48.672;9.376;2022-09-09T17:21:15;2.20;;;0.53;;
13311;SDS011;34033;48.672;9.376;2022-09-09T17:23:43;0.43;;;0.43;;
13311;SDS011;34033;48.672;9.376;2022-09-09T17:26:10;0.63;;;0.40;;
13311;SDS011;34033;48.672;9.376;2022-09-09T17:28:38;0.90;;;0.57;;
13311;SDS011;34033;48.672;9.376;2022-09-09T17:31:05;0.47;;;0.30;;
13311;SDS011;34033;48.672;9.376;2022-09-09T17:33:32;0.40;;;0.40;;
13311;SDS011;34033;48.672;9.376;2022-09-09T17:36:07;0.40;;;0.40;;
13311;SDS011;34033;48.672;9.376;2022-09-09T17:38:44;0.83;;;0.43;;